Terminal Aerodrome Forecast
Issued by NWS

Home | Current Version | Previous Version | Text Only | Print | Product List | Glossary On
Versions: 1 2 3 4 5 6 7 8 9 10 11 12 13 14 15 16 17 18 19 20 21 22 23 24 25 26 27 28 29 30 31 32 33 34 35 36 37 38 39 40 41 42 43 44 45 46 47 48 49 50
000
FTUS41 KBOX 191127 CCA
TAFBED
TAF COR
KBED 191127Z 1912/2012 19005KT P6SM FEW250
     FM191500 19012G21KT P6SM SCT100
     FM192100 19008KT 6SM -SHRA OVC025
     FM200300 21005KT 3SM BR VCSH OVC008 WS020/22040KT
     FM200500 22005KT 3SM BR OVC008 WS020/22040KT
     FM201000 22005KT 4SM BR OVC008=

USA.gov is the U.S. government's official web portal to all federal, state and local government web resources and services.